Time;durP1;ratioP1;P1;durP2;ratioP2;P2;SDS_P1;SDS_P2;PMS_P1;PMS_P2;Temp;Humidity;BMP_temperature;BMP_pressure;BME280_temperature;BME280_humidity;BME280_pressure;Samples;Min_cycle;Max_cycle;Signal;HPM_P1;HPM_P2
2022/07/10 00:00:06;;;;;;;40.22;38.13;;;;;;;23.33;37.93;102675.28;4970282;28;20392;-75
2022/07/10 00:02:31;;;;;;;40.58;38.65;;;;;;;23.30;38.37;102666.72;4955590;28;20121;-76
2022/07/10 00:04:57;;;;;;;38.30;36.40;;;;;;;23.27;37.94;102662.59;4955404;28;20118;-76
2022/07/10 00:07:22;;;;;;;37.38;35.58;;;;;;;23.24;37.92;102663.19;4955569;28;20061;-76
2022/07/10 00:09:47;;;;;;;37.38;35.58;;;;;;;23.23;38.07;102663.44;4954389;29;20055;-76
2022/07/10 00:12:13;;;;;;;37.83;35.63;;;;;;;23.20;38.03;102672.28;4971015;28;20453;-76
2022/07/10 00:14:38;;;;;;;36.50;34.58;;;;;;;23.17;38.03;102668.16;4953969;29;20440;-75
2022/07/10 00:17:04;;;;;;;38.80;36.70;;;;;;;23.16;38.26;102668.44;4955738;28;20035;-76
2022/07/10 00:19:29;;;;;;;38.25;36.15;;;;;;;23.12;38.38;102670.94;4954177;29;20031;-76
2022/07/10 00:21:55;;;;;;;40.13;37.88;;;;;;;23.10;38.67;102667.63;4970196;28;20039;-74
2022/07/10 00:24:20;;;;;;;36.97;35.13;;;;;;;23.08;38.53;102664.31;4955570;28;20027;-75
2022/07/10 00:26:47;;;;;;;37.60;35.80;;;;;;;23.05;38.44;102662.13;4955396;28;20126;-76
2022/07/10 00:29:13;;;;;;;38.38;36.47;;;;;;;23.04;38.35;102655.00;4955305;28;20039;-76
2022/07/10 00:31:38;;;;;;;38.22;35.88;;;;;;;22.99;38.85;102655.81;4954669;29;20376;-76
2022/07/10 00:34:04;;;;;;;38.20;35.80;;;;;;;22.98;38.46;102658.84;4970152;28;20031;-76
2022/07/10 00:36:29;;;;;;;38.03;36.13;;;;;;;22.96;38.41;102659.13;4938138;29;20082;-76
2022/07/10 00:38:54;;;;;;;38.67;36.40;;;;;;;22.93;38.36;102656.94;4955181;28;20071;-76
2022/07/10 00:41:20;;;;;;;37.88;35.80;;;;;;;22.90;38.53;102655.53;4970241;28;20078;-77
2022/07/10 00:43:57;;;;;;;38.28;36.28;;;;;;;22.89;38.39;102653.06;4954319;29;20041;-76
2022/07/10 00:46:23;;;;;;;36.63;34.65;;;;;;;22.85;38.53;102644.50;4955202;28;20027;-77
2022/07/10 00:48:49;;;;;;;38.85;36.83;;;;;;;22.83;38.72;102652.25;4970178;28;20400;-77
2022/07/10 00:51:17;;;;;;;38.88;36.72;;;;;;;22.80;38.52;102647.28;4953685;29;20027;-77
2022/07/10 00:53:44;;;;;;;37.30;35.38;;;;;;;22.78;38.59;102646.75;4955382;28;20536;-77
2022/07/10 00:56:11;;;;;;;37.33;35.33;;;;;;;22.75;38.94;102649.25;4955063;28;20038;-76
2022/07/10 00:58:39;;;;;;;38.33;36.22;;;;;;;22.73;38.77;102641.28;4953830;29;20035;-76
2022/07/10 01:01:06;;;;;;;38.03;36.08;;;;;;;22.72;38.69;102641.53;4955276;28;20035;-76
2022/07/10 01:03:31;;;;;;;36.38;34.47;;;;;;;22.71;38.84;102648.16;4955478;28;20071;-77
2022/07/10 01:05:58;;;;;;;37.67;35.58;;;;;;;22.67;38.92;102634.09;4958949;28;20476;-75
2022/07/10 01:08:24;;;;;;;37.47;35.67;;;;;;;22.65;38.67;102625.28;4958310;28;20082;-76
2022/07/10 01:10:50;;;;;;;36.53;34.25;;;;;;;22.63;39.13;102630.28;4957551;29;20039;-76
2022/07/10 01:13:16;;;;;;;38.50;36.58;;;;;;;22.61;38.74;102627.78;4958521;28;20038;-76
2022/07/10 01:15:42;;;;;;;36.22;34.22;;;;;;;22.59;38.65;102626.41;4958174;28;20404;-75
2022/07/10 01:18:08;;;;;;;39.20;37.00;;;;;;;22.56;38.65;102629.72;4973515;28;20039;-75
2022/07/10 01:20:33;;;;;;;36.83;34.92;;;;;;;22.54;38.71;102629.19;4973516;28;20035;-75
2022/07/10 01:23:00;;;;;;;35.63;33.63;;;;;;;22.51;38.98;102627.81;4958482;28;20086;-75
2022/07/10 01:25:25;;;;;;;37.05;34.92;;;;;;;22.48;39.23;102620.09;4973851;28;20039;-75
2022/07/10 01:27:51;;;;;;;35.85;33.95;;;;;;;22.45;38.68;102618.72;4958592;28;20037;-75
2022/07/10 01:30:20;;;;;;;37.17;35.28;;;;;;;22.44;38.83;102613.50;4958289;28;20087;-76
2022/07/10 01:32:46;;;;;;;35.80;34.05;;;;;;;22.42;38.89;102604.69;4958521;28;20066;-77
2022/07/10 01:35:12;;;;;;;35.92;34.03;;;;;;;22.39;38.75;102611.56;4958178;28;20027;-75
2022/07/10 01:37:40;;;;;;;34.63;32.78;;;;;;;22.37;39.23;102608.25;4958327;28;20110;-75
2022/07/10 01:40:06;;;;;;;34.60;32.75;;;;;;;22.35;39.05;102602.22;4957998;28;20039;-74
2022/07/10 01:42:32;;;;;;;36.40;34.60;;;;;;;22.34;39.19;102605.25;4957823;28;20031;-75
2022/07/10 01:44:57;;;;;;;37.00;34.92;;;;;;;22.30;39.10;102590.38;4956957;29;20103;-76
2022/07/10 01:47:24;;;;;;;36.90;34.85;;;;;;;22.28;39.32;102600.88;4957932;28;20062;-76
2022/07/10 01:49:51;;;;;;;34.85;33.17;;;;;;;22.25;39.15;102594.81;4958098;28;20106;-76
2022/07/10 01:52:16;;;;;;;36.08;34.17;;;;;;;22.24;38.92;102597.81;4957857;28;20114;-75
2022/07/10 01:54:42;;;;;;;35.83;33.38;;;;;;;22.21;39.53;102609.38;4957576;28;20114;-76
2022/07/10 01:57:07;;;;;;;35.10;33.40;;;;;;;22.19;38.99;102609.66;4972605;28;20036;-74
2022/07/10 01:59:32;;;;;;;37.28;35.30;;;;;;;22.16;39.26;102612.13;4957426;28;20038;-76
2022/07/10 02:01:58;;;;;;;34.65;32.95;;;;;;;22.13;38.93;102602.47;4956328;29;20365;-76
2022/07/10 02:04:41;;;;;;;34.72;33.03;;;;;;;22.11;39.16;102601.94;4956517;29;20451;-75
2022/07/10 02:07:12;;;;;;;35.08;33.28;;;;;;;22.09;39.40;102597.81;4973124;28;20046;-75
2022/07/10 02:09:38;;;;;;;35.85;33.95;;;;;;;22.06;39.30;102596.44;4957761;28;20079;-75
2022/07/10 02:12:05;;;;;;;32.60;31.00;;;;;;;22.04;39.15;102598.63;4957556;28;20040;-75
2022/07/10 02:14:30;;;;;;;35.05;33.35;;;;;;;22.01;39.36;102597.25;4957409;28;20051;-75
2022/07/10 02:16:56;;;;;;;34.90;33.10;;;;;;;21.98;39.40;102599.72;4957503;28;20035;-75
2022/07/10 02:19:21;;;;;;;36.13;33.97;;;;;;;21.96;39.49;102602.75;4956932;28;20027;-74
2022/07/10 02:21:47;;;;;;;33.83;32.13;;;;;;;21.94;39.51;102602.19;4957554;28;20118;-75
2022/07/10 02:24:12;;;;;;;35.17;32.97;;;;;;;21.92;39.18;102600.81;4957179;28;20094;-75
2022/07/10 02:26:38;;;;;;;34.45;32.72;;;;;;;21.90;39.35;102603.00;4957313;28;20032;-75
2022/07/10 02:29:03;;;;;;;34.38;32.20;;;;;;;21.87;39.01;102598.06;4956138;29;20035;-75
2022/07/10 02:31:28;;;;;;;37.20;34.85;;;;;;;21.85;39.17;102601.09;4957114;28;20114;-76
2022/07/10 02:33:54;;;;;;;35.03;33.13;;;;;;;21.83;39.26;102604.13;4956922;28;20067;-76
2022/07/10 02:36:19;;;;;;;37.10;34.83;;;;;;;21.80;39.19;102603.84;4971573;28;20027;-75
2022/07/10 02:38:45;;;;;;;35.20;33.53;;;;;;;21.78;39.41;102601.38;4957236;28;20031;-75
2022/07/10 02:41:10;;;;;;;34.33;32.67;;;;;;;21.76;39.29;102597.22;4939992;29;20500;-76
2022/07/10 02:43:36;;;;;;;35.30;33.33;;;;;;;21.74;39.62;102593.94;4955977;29;20452;-75
2022/07/10 02:46:02;;;;;;;34.35;32.65;;;;;;;21.72;39.51;102604.38;4955776;29;20036;-75
2022/07/10 02:48:27;;;;;;;35.50;33.50;;;;;;;21.69;39.51;102603.00;4957328;28;20039;-74
2022/07/10 02:50:53;;;;;;;36.13;34.15;;;;;;;21.68;39.25;102595.03;4971956;28;20118;-77
2022/07/10 02:53:18;;;;;;;35.63;33.63;;;;;;;21.66;39.58;102594.47;4956699;28;20027;-78
2022/07/10 02:55:44;;;;;;;35.35;33.65;;;;;;;21.64;39.79;102596.66;4956689;28;20166;-76
2022/07/10 02:58:09;;;;;;;33.65;31.95;;;;;;;21.61;39.33;102590.59;4956344;28;20049;-76
2022/07/10 03:00:35;;;;;;;34.15;32.25;;;;;;;21.58;39.74;102587.59;4956591;28;20074;-77
2022/07/10 03:03:01;;;;;;;34.72;32.63;;;;;;;21.55;39.35;102591.72;4971724;28;20027;-76
2022/07/10 03:05:26;;;;;;;36.65;33.97;;;;;;;21.53;39.50;102591.16;4956509;28;20484;-77
2022/07/10 03:07:52;;;;;;;34.88;32.97;;;;;;;21.51;39.77;102587.84;4956496;28;20031;-77
2022/07/10 03:10:17;;;;;;;34.53;32.83;;;;;;;21.48;39.43;102593.06;4957005;28;20083;-75
2022/07/10 03:12:42;;;;;;;34.33;32.50;;;;;;;21.46;39.81;102596.06;4955216;29;20039;-76
2022/07/10 03:15:08;;;;;;;34.67;32.95;;;;;;;21.45;39.88;102593.63;4956921;28;20139;-76
2022/07/10 03:17:34;;;;;;;33.33;31.73;;;;;;;21.44;39.74;102591.94;4971108;28;20038;-77
2022/07/10 03:19:59;;;;;;;34.75;32.78;;;;;;;21.40;39.38;102591.66;4956275;28;20036;-78
2022/07/10 03:22:25;;;;;;;35.38;33.30;;;;;;;21.38;39.52;102586.44;4956695;28;20472;-76
2022/07/10 03:24:50;;;;;;;33.95;32.05;;;;;;;21.36;39.47;102585.84;4970724;28;20510;-77
2022/07/10 03:27:16;;;;;;;34.35;32.65;;;;;;;21.34;39.56;102584.47;4956006;28;20035;-78
2022/07/10 03:29:41;;;;;;;34.17;32.40;;;;;;;21.32;39.59;102568.25;4956087;28;20035;-76
2022/07/10 03:32:07;;;;;;;34.60;32.67;;;;;;;21.29;39.97;102568.81;4956422;28;20039;-78
2022/07/10 03:34:33;;;;;;;35.47;33.38;;;;;;;21.28;39.64;102582.81;4970797;28;20118;-78
2022/07/10 03:37:00;;;;;;;32.92;31.33;;;;;;;21.26;39.57;102577.56;4971363;28;20058;-76
2022/07/10 03:39:26;;;;;;;33.90;32.10;;;;;;;21.23;39.92;102572.63;4955850;28;20031;-76
2022/07/10 03:41:52;;;;;;;33.28;31.05;;;;;;;21.22;40.13;102559.13;4955930;28;20166;-79
2022/07/10 03:44:17;;;;;;;33.72;31.85;;;;;;;21.20;40.00;102547.63;4956190;28;20516;-80
2022/07/10 03:46:43;;;;;;;33.28;31.55;;;;;;;21.16;40.03;102559.13;4954626;29;20093;-76
2022/07/10 03:49:08;;;;;;;33.45;31.70;;;;;;;21.15;39.99;102575.91;4955553;28;20036;-76
2022/07/10 03:51:33;;;;;;;34.80;33.00;;;;;;;21.14;39.84;102568.72;4971045;28;20129;-76
2022/07/10 03:53:59;;;;;;;33.47;31.80;;;;;;;21.11;39.76;102572.84;4956246;28;20035;-76
2022/07/10 03:59:08;;;;;;;33.75;32.00;;;;;;;21.06;40.23;102570.09;4954809;29;20058;-77
2022/07/10 04:01:33;;;;;;;34.30;32.30;;;;;;;21.04;39.85;102572.28;4955841;28;20039;-77
2022/07/10 04:03:59;;;;;;;33.70;31.75;;;;;;;21.03;40.07;102562.38;4954489;29;20035;-77
2022/07/10 04:06:24;;;;;;;34.20;32.50;;;;;;;21.01;39.96;102570.06;4955799;28;20384;-76
2022/07/10 04:08:50;;;;;;;34.47;32.72;;;;;;;21.00;40.16;102571.16;4955678;28;20065;-76
2022/07/10 04:11:15;;;;;;;32.40;30.80;;;;;;;20.98;40.12;102576.09;4955548;28;20464;-77
2022/07/10 04:13:41;;;;;;;33.65;31.95;;;;;;;20.96;40.24;102573.63;4955474;28;20074;-78
2022/07/10 04:16:06;;;;;;;34.15;32.45;;;;;;;20.95;40.13;102576.66;4955522;28;20070;-78
2022/07/10 04:18:32;;;;;;;35.00;32.97;;;;;;;20.92;40.31;102569.75;4970283;28;20141;-77
2022/07/10 04:20:57;;;;;;;32.90;31.20;;;;;;;20.91;40.50;102575.50;4955713;28;20031;-78
2022/07/10 04:23:22;;;;;;;32.45;30.75;;;;;;;20.89;40.10;102580.44;4955486;28;20074;-77
2022/07/10 04:25:48;;;;;;;32.92;31.23;;;;;;;20.87;40.07;102583.47;4955236;28;20039;-79
2022/07/10 04:28:13;;;;;;;33.10;31.50;;;;;;;20.86;40.23;102580.97;4955307;28;20464;-75
2022/07/10 04:30:38;;;;;;;34.35;32.55;;;;;;;20.83;40.17;102584.28;4970092;28;20070;-76
2022/07/10 04:33:04;;;;;;;33.95;32.15;;;;;;;20.81;40.30;102576.28;4954170;29;20039;-76
2022/07/10 04:35:29;;;;;;;32.20;30.52;;;;;;;20.80;40.55;102574.66;4970045;28;20443;-79
2022/07/10 04:37:54;;;;;;;32.30;30.60;;;;;;;20.79;40.64;102577.66;4956105;28;20392;-76
2022/07/10 04:40:20;;;;;;;33.83;32.13;;;;;;;20.77;40.27;102569.69;4959806;28;20035;-77
2022/07/10 04:42:45;;;;;;;33.67;31.90;;;;;;;20.75;40.71;102575.44;4959122;28;20622;-78
2022/07/10 04:45:11;;;;;;;31.88;30.17;;;;;;;20.74;40.15;102571.06;4959415;28;20043;-78
2022/07/10 04:47:36;;;;;;;32.13;30.42;;;;;;;20.72;40.68;102570.50;4959154;28;20086;-77
2022/07/10 04:50:02;;;;;;;31.83;30.23;;;;;;;20.71;40.64;102571.59;4959329;28;20035;-77
2022/07/10 04:52:27;;;;;;;31.73;30.13;;;;;;;20.69;40.36;102575.69;4959017;28;20373;-79
2022/07/10 04:54:53;;;;;;;32.22;30.42;;;;;;;20.68;40.60;102574.03;4958801;28;20070;-79
2022/07/10 04:57:18;;;;;;;31.30;29.77;;;;;;;20.65;40.76;102572.66;4958911;28;20431;-77
2022/07/10 04:59:43;;;;;;;32.00;30.30;;;;;;;20.64;40.84;102554.53;4941665;28;20031;-76
2022/07/10 05:02:09;;;;;;;32.75;30.92;;;;;;;20.62;40.36;102542.97;4959378;28;20070;-77
2022/07/10 05:04:34;;;;;;;31.55;30.05;;;;;;;20.62;40.75;102550.41;4958768;28;20042;-77
2022/07/10 05:06:59;;;;;;;31.65;29.65;;;;;;;20.60;40.46;102552.56;4959348;28;20035;-77
2022/07/10 05:09:25;;;;;;;32.08;30.48;;;;;;;20.60;40.59;102563.56;4957873;29;20051;-76
2022/07/10 05:11:50;;;;;;;32.80;31.05;;;;;;;20.57;40.77;102573.16;4941551;29;20035;-77
2022/07/10 05:14:16;;;;;;;31.02;29.42;;;;;;;20.57;40.57;102573.16;4959044;28;20415;-78
2022/07/10 05:16:41;;;;;;;31.92;30.33;;;;;;;20.55;40.79;102575.34;4973440;28;20031;-76
2022/07/10 05:19:07;;;;;;;31.98;30.35;;;;;;;20.55;40.68;102574.50;4958494;28;20377;-77
2022/07/10 05:21:33;;;;;;;31.67;30.08;;;;;;;20.53;40.72;102585.72;4958513;28;20046;-76
2022/07/10 05:23:59;;;;;;;31.40;29.80;;;;;;;20.52;40.80;102579.41;4972989;28;20408;-74
2022/07/10 05:26:24;;;;;;;32.33;30.33;;;;;;;20.51;41.09;102574.16;4958465;28;20039;-77
2022/07/10 05:28:49;;;;;;;32.05;30.35;;;;;;;20.50;41.16;102584.34;4958374;28;20035;-76
2022/07/10 05:31:15;;;;;;;31.90;30.35;;;;;;;20.48;41.23;102580.19;4958368;28;20027;-78
2022/07/10 05:33:40;;;;;;;32.13;30.52;;;;;;;20.49;40.90;102590.09;4957652;29;20045;-78
2022/07/10 05:36:07;;;;;;;31.42;29.90;;;;;;;20.48;41.15;102580.19;4958712;28;20127;-78
2022/07/10 05:38:33;;;;;;;31.80;30.20;;;;;;;20.47;41.42;102581.31;4958579;28;20357;-79
2022/07/10 05:40:58;;;;;;;31.50;29.70;;;;;;;20.47;40.93;102573.06;4958798;28;20035;-76
2022/07/10 05:43:23;;;;;;;31.08;29.30;;;;;;;20.46;41.34;102565.91;4958769;28;20392;-77
2022/07/10 05:45:49;;;;;;;32.50;30.60;;;;;;;20.46;41.39;102579.63;4959778;28;20038;-77
2022/07/10 05:48:14;;;;;;;31.08;29.48;;;;;;;20.46;41.27;102582.38;4959931;28;20035;-78
2022/07/10 05:50:39;;;;;;;32.70;30.60;;;;;;;20.45;41.45;102578.00;4960443;28;20037;-75
2022/07/10 05:53:05;;;;;;;31.02;29.40;;;;;;;20.45;41.32;102569.75;4975547;28;20043;-76
2022/07/10 05:55:30;;;;;;;31.92;29.98;;;;;;;20.45;41.66;102567.84;4977532;28;20042;-75
2022/07/10 05:57:56;;;;;;;31.63;29.92;;;;;;;20.44;41.35;102579.09;4978253;28;20051;-79
2022/07/10 06:00:21;;;;;;;31.15;29.20;;;;;;;20.44;41.75;102587.31;4974366;28;20043;-77
2022/07/10 06:02:47;;;;;;;31.88;30.15;;;;;;;20.44;41.55;102570.84;4972563;28;20035;-78
2022/07/10 06:05:12;;;;;;;31.17;29.40;;;;;;;20.44;41.66;102582.66;4964919;28;20071;-77
2022/07/10 06:07:37;;;;;;;33.63;31.25;;;;;;;20.45;41.52;102581.56;4960460;28;20068;-76
2022/07/10 06:10:04;;;;;;;30.42;28.92;;;;;;;20.43;42.01;102577.41;4960494;28;20113;-77
2022/07/10 06:12:29;;;;;;;31.70;30.10;;;;;;;20.43;41.47;102580.16;4959457;28;20070;-77
2022/07/10 06:14:55;;;;;;;33.08;31.25;;;;;;;20.43;41.72;102577.41;4958708;28;20489;-76
2022/07/10 06:17:20;;;;;;;31.25;29.55;;;;;;;20.42;41.67;102581.28;4959511;28;20110;-79
2022/07/10 06:19:45;;;;;;;32.33;30.45;;;;;;;20.42;42.18;102576.59;4959556;28;20039;-79
2022/07/10 06:24:55;;;;;;;32.08;30.48;;;;;;;20.42;41.99;102573.03;4974346;29;20198;-76
2022/07/10 06:27:20;;;;;;;31.83;29.83;;;;;;;20.42;42.42;102573.84;4974184;28;20468;-76
2022/07/10 06:29:45;;;;;;;31.88;30.13;;;;;;;20.43;42.05;102561.78;4970402;28;20039;-77
2022/07/10 06:32:11;;;;;;;32.33;30.20;;;;;;;20.46;42.18;102580.47;4962066;28;20043;-77
2022/07/10 06:34:36;;;;;;;32.53;30.83;;;;;;;20.47;42.21;102565.66;4958671;28;20086;-77
2022/07/10 06:37:02;;;;;;;30.63;29.13;;;;;;;20.49;42.30;102577.19;4958174;28;20490;-80
2022/07/10 06:39:33;;;;;;;32.17;30.33;;;;;;;20.52;42.94;102568.44;4957527;28;20094;-76
2022/07/10 06:42:00;;;;;;;32.70;30.90;;;;;;;20.53;42.35;102574.75;4957592;28;20035;-77
2022/07/10 06:44:25;;;;;;;31.73;30.02;;;;;;;20.56;42.60;102570.66;4956634;29;20062;-79
2022/07/10 06:49:35;;;;;;;32.85;31.25;;;;;;;20.62;42.79;102577.84;4957485;29;20054;-79
2022/07/10 06:52:00;;;;;;;32.85;31.00;;;;;;;20.63;42.73;102574.81;4957247;28;20035;-78
2022/07/10 06:54:26;;;;;;;31.55;29.92;;;;;;;20.66;42.92;102579.81;4957044;28;20512;-76
2022/07/10 06:56:52;;;;;;;33.50;31.70;;;;;;;20.67;42.73;102577.88;4957063;28;20038;-78
2022/07/10 06:59:17;;;;;;;31.42;29.55;;;;;;;20.69;42.57;102573.78;4955327;29;20031;-77
2022/07/10 07:01:43;;;;;;;31.13;29.52;;;;;;;20.71;42.71;102577.09;4956562;28;20035;-76
2022/07/10 07:04:08;;;;;;;31.15;29.65;;;;;;;20.72;42.57;102567.75;4957068;28;20039;-76
2022/07/10 07:06:34;;;;;;;31.38;29.65;;;;;;;20.73;42.58;102572.13;4957306;28;20143;-78
2022/07/10 07:08:59;;;;;;;33.08;30.90;;;;;;;20.77;42.79;102568.88;4955896;29;20075;-77
2022/07/10 07:11:24;;;;;;;30.95;29.42;;;;;;;20.81;42.97;102578.22;4956745;28;20396;-77
2022/07/10 07:13:50;;;;;;;31.85;29.85;;;;;;;20.82;42.78;102569.72;4955357;29;20055;-79
2022/07/10 07:16:18;;;;;;;32.80;30.67;;;;;;;20.86;42.73;102578.25;4955707;29;20085;-78
2022/07/10 07:18:49;;;;;;;30.15;28.63;;;;;;;20.89;42.92;102575.81;4955842;28;20142;-76
2022/07/10 07:23:58;;;;;;;32.75;30.63;;;;;;;20.93;43.24;102579.66;4956403;29;20046;-77
2022/07/10 07:26:24;;;;;;;32.70;30.20;;;;;;;20.98;43.07;102578.03;4956277;28;20116;-78
2022/07/10 07:28:49;;;;;;;33.03;31.23;;;;;;;21.00;43.35;102579.41;4956234;28;20035;-74
2022/07/10 07:31:17;;;;;;;31.63;30.02;;;;;;;21.03;43.20;102581.63;4955905;28;20099;-78
2022/07/10 07:33:43;;;;;;;31.25;29.65;;;;;;;21.05;43.09;102576.69;4954969;28;20102;-78
2022/07/10 07:36:08;;;;;;;32.65;30.95;;;;;;;21.06;43.34;102581.06;4954877;28;20424;-76
2022/07/10 07:38:34;;;;;;;33.33;31.63;;;;;;;21.10;42.95;102584.94;4971342;28;20163;-76
2022/07/10 07:40:59;;;;;;;34.85;32.72;;;;;;;21.14;43.30;102579.72;4955729;28;20063;-77
2022/07/10 07:43:25;;;;;;;32.33;30.45;;;;;;;21.17;43.38;102582.78;4956115;28;20035;-79
2022/07/10 07:45:50;;;;;;;32.97;31.27;;;;;;;21.21;43.14;102590.47;4956195;28;20082;-81
2022/07/10 07:48:16;;;;;;;33.05;31.23;;;;;;;21.23;43.29;102580.03;4954843;29;20035;-75
2022/07/10 07:50:41;;;;;;;33.42;31.40;;;;;;;21.27;43.26;102581.13;4956188;28;20027;-77
2022/07/10 07:53:06;;;;;;;35.25;33.25;;;;;;;21.30;43.12;102586.13;4954660;29;20050;-77
2022/07/10 07:55:33;;;;;;;34.42;32.60;;;;;;;21.32;43.23;102597.69;4954629;29;20031;-77
2022/07/10 07:57:59;;;;;;;34.22;32.30;;;;;;;21.34;43.13;102588.06;4956495;28;20041;-77
2022/07/10 08:00:26;;;;;;;32.10;30.50;;;;;;;21.37;43.59;102590.25;4955957;28;20035;-76
2022/07/10 08:02:53;;;;;;;34.43;32.73;;;;;;;21.41;43.33;102587.00;4955970;28;20093;-76
2022/07/10 08:05:20;;;;;;;35.38;33.13;;;;;;;21.42;43.29;102584.00;4971071;28;20285;-78
2022/07/10 08:07:47;;;;;;;33.92;31.92;;;;;;;21.46;43.74;102581.50;4955309;28;20035;-77
2022/07/10 08:10:15;;;;;;;32.67;30.98;;;;;;;21.49;43.67;102581.78;4955895;28;20136;-77
2022/07/10 08:12:42;;;;;;;33.23;31.53;;;;;;;21.53;43.29;102580.16;4955286;28;20110;-77
2022/07/10 08:15:10;;;;;;;33.50;31.80;;;;;;;21.55;43.61;102582.63;4955801;28;20034;-81
2022/07/10 08:17:35;;;;;;;34.72;33.03;;;;;;;21.57;43.59;102575.75;4954881;29;20032;-77
2022/07/10 08:20:02;;;;;;;34.85;32.95;;;;;;;21.61;43.67;102578.78;4955329;28;20126;-77
2022/07/10 08:22:28;;;;;;;32.67;30.88;;;;;;;21.64;43.18;102588.41;4955424;28;20109;-77
2022/07/10 08:24:53;;;;;;;34.70;32.80;;;;;;;21.66;43.50;102577.97;4955511;28;20511;-76
2022/07/10 08:27:18;;;;;;;34.15;32.45;;;;;;;21.70;43.65;102579.09;4970178;28;20034;-78
2022/07/10 08:29:44;;;;;;;34.80;33.00;;;;;;;21.72;43.35;102574.97;4955549;28;20037;-80
2022/07/10 08:32:09;;;;;;;34.00;31.92;;;;;;;21.73;43.65;102579.34;4955242;28;20035;-76
2022/07/10 08:34:36;;;;;;;35.10;33.25;;;;;;;21.78;43.39;102570.28;4955366;28;20062;-78
2022/07/10 08:37:01;;;;;;;35.45;33.15;;;;;;;21.80;43.13;102568.91;4955507;28;20039;-76
2022/07/10 08:39:27;;;;;;;34.88;32.90;;;;;;;21.84;43.32;102571.94;4955229;28;20036;-76
2022/07/10 08:41:52;;;;;;;36.65;34.85;;;;;;;21.87;43.29;102571.38;4954129;29;20035;-78
2022/07/10 08:44:18;;;;;;;36.83;34.67;;;;;;;21.89;43.67;102571.94;4955408;28;20470;-78
2022/07/10 08:46:44;;;;;;;35.33;33.15;;;;;;;21.91;43.43;102566.97;4954980;28;20047;-79
2022/07/10 08:49:11;;;;;;;36.10;34.20;;;;;;;21.95;43.60;102570.84;4955186;28;20050;-80
2022/07/10 08:52:01;;;;;;;35.13;33.38;;;;;;;21.98;43.40;102564.78;4955718;28;20046;-76
2022/07/10 08:54:28;;;;;;;34.53;32.63;;;;;;;22.00;43.58;102570.84;4954895;28;20083;-76
2022/07/10 08:56:56;;;;;;;34.97;33.28;;;;;;;22.03;43.23;102573.03;4955155;28;20031;-76
2022/07/10 08:59:22;;;;;;;35.13;33.03;;;;;;;22.06;43.53;102566.16;4954734;28;20102;-78
2022/07/10 09:01:49;;;;;;;35.88;33.85;;;;;;;22.09;43.37;102567.53;4955121;28;20035;-77
2022/07/10 09:04:18;;;;;;;36.50;34.28;;;;;;;22.12;43.06;102567.78;4955007;28;20365;-77
2022/07/10 09:06:44;;;;;;;34.90;33.17;;;;;;;22.13;42.99;102563.94;4954803;28;20038;-75
2022/07/10 09:09:11;;;;;;;35.30;33.50;;;;;;;22.18;43.48;102568.63;4955081;28;20052;-78
2022/07/10 09:11:40;;;;;;;35.17;33.38;;;;;;;22.20;42.96;102561.78;4954982;28;20043;-78
2022/07/10 09:14:11;;;;;;;35.63;33.88;;;;;;;22.23;43.43;102558.47;4955149;28;20039;-77
2022/07/10 09:16:41;;;;;;;33.85;32.22;;;;;;;22.25;42.97;102564.53;4954955;28;20147;-75
2022/07/10 09:19:25;;;;;;;34.70;32.90;;;;;;;22.28;42.87;102559.56;4954726;28;20043;-77
2022/07/10 09:21:52;;;;;;;37.42;35.63;;;;;;;22.31;43.04;102559.81;4955474;28;20098;-76
2022/07/10 09:24:19;;;;;;;36.33;34.53;;;;;;;22.34;42.97;102552.94;4954632;28;20101;-77
2022/07/10 09:26:58;;;;;;;37.50;35.08;;;;;;;22.38;43.25;102549.34;4958507;28;20031;-77
2022/07/10 09:29:23;;;;;;;39.25;37.15;;;;;;;22.39;43.01;102552.94;4958405;28;20031;-78
2022/07/10 09:31:53;;;;;;;37.40;35.28;;;;;;;22.43;43.41;102545.78;4958158;28;20493;-78
2022/07/10 09:34:39;;;;;;;37.58;35.53;;;;;;;22.47;43.14;102546.84;4958167;28;20035;-78
2022/07/10 09:37:20;;;;;;;36.15;34.20;;;;;;;22.51;42.90;102536.94;4958250;28;20038;-77
2022/07/10 09:39:59;;;;;;;37.83;35.70;;;;;;;22.54;42.86;102546.56;4973415;28;20046;-76
2022/07/10 09:42:39;;;;;;;36.92;35.13;;;;;;;22.54;43.17;102547.38;4958035;28;20118;-77
2022/07/10 09:45:16;;;;;;;38.03;36.20;;;;;;;22.58;43.09;102542.13;4958187;28;20427;-79
2022/07/10 09:47:48;;;;;;;38.08;36.08;;;;;;;22.61;42.95;102533.31;4958059;28;20031;-77
2022/07/10 09:50:25;;;;;;;37.83;36.03;;;;;;;22.66;42.71;102536.06;4958292;28;20058;-77
2022/07/10 09:53:10;;;;;;;36.08;34.28;;;;;;;22.68;43.01;102533.84;4957968;28;20537;-78
2022/07/10 09:55:36;;;;;;;37.10;35.17;;;;;;;22.72;42.76;102525.84;4958779;28;20114;-76
2022/07/10 09:58:03;;;;;;;38.10;36.22;;;;;;;22.75;42.78;102526.09;4956868;29;20052;-79
2022/07/10 10:00:30;;;;;;;37.92;36.03;;;;;;;22.79;42.56;102532.69;4972589;28;20424;-77
2022/07/10 10:03:04;;;;;;;37.05;35.15;;;;;;;22.85;42.56;102537.06;4972800;28;20047;-77
2022/07/10 10:05:55;;;;;;;38.05;36.05;;;;;;;22.89;42.55;102531.81;4957552;28;20042;-76
2022/07/10 10:08:46;;;;;;;38.63;36.72;;;;;;;22.93;42.97;102535.69;4957388;28;20035;-77
2022/07/10 10:11:20;;;;;;;37.45;35.55;;;;;;;22.97;42.68;102536.78;4956936;28;20043;-74
2022/07/10 10:13:48;;;;;;;39.05;37.15;;;;;;;23.01;42.56;102528.78;4957916;28;20035;-75
2022/07/10 10:16:14;;;;;;;37.97;36.07;;;;;;;23.05;42.83;102532.59;4957475;28;20392;-73
2022/07/10 10:20:37;;;;;;;39.53;37.03;;;;;;;23.09;42.32;102526.25;4957387;28;20027;-75
2022/07/10 10:21:28;;;;;;;37.75;35.85;;;;;;;23.13;42.92;102529.22;4957049;28;20043;-74
2022/07/10 10:23:55;;;;;;;36.20;34.45;;;;;;;23.18;42.69;102526.44;4957468;28;20468;-75
2022/07/10 10:26:22;;;;;;;38.47;36.58;;;;;;;23.21;42.59;102520.38;4957278;28;20035;-74
2022/07/10 10:28:47;;;;;;;39.05;37.05;;;;;;;23.25;43.00;102526.97;4957595;28;20366;-76
2022/07/10 10:31:13;;;;;;;38.38;36.38;;;;;;;23.29;42.44;102527.22;4957253;28;20527;-74
2022/07/10 10:33:42;;;;;;;37.78;35.97;;;;;;;23.35;42.30;102526.06;4957389;28;20059;-75
2022/07/10 10:36:12;;;;;;;38.55;36.45;;;;;;;23.39;42.57;102524.41;4957607;28;20039;-75
2022/07/10 10:38:55;;;;;;;39.13;37.15;;;;;;;23.43;42.59;102527.41;4955939;29;20142;-77
2022/07/10 10:41:38;;;;;;;40.22;38.20;;;;;;;23.45;42.97;102526.00;4957223;28;20028;-78
2022/07/10 10:44:26;;;;;;;41.03;38.92;;;;;;;23.50;42.66;102520.44;4956857;28;20032;-80
2022/07/10 10:46:54;;;;;;;38.92;37.00;;;;;;;23.52;42.70;102523.75;4957816;28;20035;-73
2022/07/10 10:49:24;;;;;;;;;;;;;;;23.55;42.79;102522.34;4957555;28;20070;-74
2022/07/10 10:51:56;;;;;;;39.38;37.22;;;;;;;23.59;42.60;102523.44;4957078;28;19910;-76
2022/07/10 10:54:21;;;;;;;39.58;37.58;;;;;;;23.63;42.29;102523.66;4956809;28;20479;-77
2022/07/10 10:57:16;;;;;;;39.90;37.70;;;;;;;23.67;42.19;102528.31;4956837;28;20039;-76
2022/07/10 10:59:49;;;;;;;41.08;38.78;;;;;;;23.70;42.14;102524.97;4957297;28;20027;-76
2022/07/10 11:02:41;;;;;;;41.47;39.47;;;;;;;23.73;42.23;102524.44;4957349;28;20047;-69
2022/07/10 11:05:19;;;;;;;39.25;37.35;;;;;;;23.78;42.55;102525.50;4956825;28;20058;-75
2022/07/10 11:07:56;;;;;;;;;;;;;;;23.78;42.14;102518.06;4956673;28;20036;-73
2022/07/10 11:10:40;;;;;;;38.33;36.47;;;;;;;23.82;42.26;102515.56;4956989;28;19918;-74
2022/07/10 11:13:07;;;;;;;39.75;37.78;;;;;;;23.85;42.10;102517.72;4956946;28;20051;-74
2022/07/10 11:15:36;;;;;;;41.28;39.28;;;;;;;23.88;42.06;102515.19;4956280;28;20047;-73
2022/07/10 11:18:05;;;;;;;43.90;41.80;;;;;;;23.90;41.99;102512.97;4956782;28;20031;-75
2022/07/10 11:20:42;;;;;;;41.72;39.58;;;;;;;23.95;42.50;102512.13;4956288;28;20058;-75